Terminal Aerodrome Forecast
Issued by NWS

Home | Current Version | Previous Version | Text Only | Print | Product List | Glossary On
Versions: 1 2 3 4 5 6 7 8 9 10 11 12
467
FTUS45 KABQ 111129
TAFSAF
TAF
KSAF 111129Z 1112/1212 36015KT P6SM SKC
     FM111900 27008KT P6SM FEW250
     FM120200 01006KT P6SM SCT250
      TEMPO 1209/1212 36015KT=

USA.gov is the U.S. government's official web portal to all federal, state and local government web resources and services.